Frey Ranch - Fallon, Nevada Weather observations

Data are for observation ending at time listed.
 Day   Time    Ave.   Ave.  Ave.  Vector   Max.   Stn.    Total    Solar   Ave.  
  of    of     Air    Rel.  Wind   Wind    Wind   Baro.  Precip.   Rad.    Soil  
Year   Day     Temp.  Hum.  Speed  Dir.    Gust   Pres.                    Temp. 
2014   (PST)    F      %     mph   deg.    mph     mb.     in.     W/m2     F   
------------------------------------------------------------------------------
 209    6:00   72.1    37    1.2   261      2.0   999.0    0.00     145    85.2
 209    6:10   74.1    38    0.7   261      1.4   999.0    0.00     252    85.2
 209    6:20   77.0    35    1.6   205      3.4   999.0    0.00     299    85.2
 209    6:30   79.1    32    1.1   180      3.0   999.0    0.00     307    85.1
 209    6:40   79.2    31    2.0   191      3.3   999.0    0.00     204    85.1
 209    6:50   77.7    36    1.6   196      2.6   999.0    0.00     201    85.1
 209    7:00   78.7    33    2.5   226      4.6   999.0    0.00     382    85.1
 209    7:10   79.7    27    4.4   255      7.2   999.0    0.00     185    85.0
 209    7:20   79.2    30    3.0   242      4.9   999.0    0.00     237    85.0
 209    7:30   80.5    29    2.8   263      4.7   999.0    0.00     285    85.0
 209    7:40   81.6    26    3.5   262      5.2   999.0    0.00     372    85.0
 209    7:50   83.3    23    3.0   274      4.6   999.0    0.00     430    84.9
 209    8:00   84.3    20    2.0   276      3.5   999.0    0.00     440    84.9
 209    8:10   86.6    16    1.5   266      3.3   999.0    0.00     545    84.9
 209    8:20   86.4    17    2.4   301      4.7   999.0    0.00     549    84.8
 209    8:30   86.8    16    3.0   285      5.8   999.0    0.00     510    84.8
 209    8:40   86.3    16    2.8   230      5.2   999.0    0.00     518    84.8
 209    8:50   87.1    16    3.8   200      5.4   999.0    0.00     413    84.8
 209    9:00   86.1    16    3.2   186      4.9   999.0    0.00     349    84.8
 209    9:10   87.0    16    3.4   178      6.2   999.0    0.00     455    84.7
 209    9:20   87.8    15    3.9   158      6.2   999.0    0.00     550    84.7
 209    9:30   88.5    15    4.2   144      6.8   999.0    0.00     554    84.7
 209    9:40   88.4    16    3.4   187      6.0   999.0    0.00     349    84.7
 209    9:50   87.4    16    3.9   155      6.3   999.0    0.00     352    84.6
 209   10:00   87.9    16    3.7   158      5.6   999.0    0.00     387    84.6
 209   10:10   88.2    15    3.4   138      5.2   999.0    0.00     384    84.6
 209   10:20   88.4    14    3.4   130      5.2   999.0    0.00     409    84.6
 209   10:30   88.9    13    2.9   132      4.8   999.0    0.00     403    84.6
 209   10:40   88.9    13    3.6   104      6.1   999.0    0.00     400    84.5
 209   10:50   88.9    13    3.2   110      4.8   999.0    0.00     395    84.5
 209   11:00   89.4    12    2.5   124      3.9   999.0    0.00     409    84.5
 209   11:10   90.3    12    1.9   139      3.8   999.0    0.00     375    84.5
 209   11:20   90.8    16    0.4    51      2.6   999.0    0.00     371    84.5
 209   11:30   89.6    17    2.5   334      3.6   999.0    0.00     415    84.5
 209   11:40   89.9    16    2.2   334      3.7   999.0    0.00     502    84.5
 209   11:50   90.0    15    2.9   322      3.8   999.0    0.00     542    84.5
 209   12:00   91.1    14    2.3   332      4.7   999.0    0.00     545    84.5
 209   12:10   91.6    13    2.4   347      4.1   999.0    0.00     567    84.5
 209   12:20   92.0    14    1.8   344      4.1   999.0    0.00     428    84.5
 209   12:30   92.7    14    0.8     6      2.9   999.0    0.00     404    84.5
 209   12:40   92.8    13    1.6    62      4.5   999.0    0.00     434    84.5
 209   12:50   92.3    13    2.4   336      3.9   999.0    0.00     529    84.5
 209   13:00   92.9    13    1.8    45      3.6   999.0    0.00     449    84.5
 209   13:10   93.4    14    1.1     6      3.8   999.0    0.00     381    84.5
 209   13:20   92.8    12    2.3    73      4.7   999.0    0.00     306    84.5
 209   13:30   92.4    12    2.1    68      5.2   999.0    0.00     268    84.5
 209   13:40   92.3    12    2.2    72      3.7   999.0    0.00     247    84.5
 209   13:50   91.7    12    2.8    69      5.0   999.0    0.00     218    84.5
 209   14:00   91.4    15    0.8    49      3.1   999.0    0.00     185    84.5
 209   14:10   90.8    15    1.1    79      3.1   999.0    0.00     163    84.5
 209   14:20   91.4    12    2.0    88      3.4   999.0    0.00     150    84.5
 209   14:30   90.2    18    0.7    31      2.4   999.0    0.00     133    84.5
 209   14:40   88.8    17    2.2    13     10.4   999.0    0.00     123    84.6
 209   14:50   88.7    16    1.6    32      5.1   999.0    0.00     111    84.6
 209   15:00   89.2    16    2.3    73      5.2   999.0    0.00     115    84.6
 209   15:10   89.0    14    5.5    15     14.0   999.0    0.00     137    84.6
 209   15:20   89.8    14    7.3    69     14.7   999.0    0.00     151    84.7
 209   15:30   89.8    13    8.4    93     14.8   999.0    0.00     143    84.7
 209   15:40   89.2    14    9.7   104     17.3   999.0    0.00     136    84.7
 209   15:50   87.3    19    7.4   144     14.7   999.0    0.00     138    84.7
 209   16:00   84.7    23   11.7   163     24.6   999.0    0.00     130    84.7
 209   16:10   83.5    25   12.1   158     20.7   999.0    0.00     115    84.7
 209   16:20   82.7    27   13.6   164     24.4   999.0    0.00     108    84.7
 209   16:30   82.0    28   13.2   156     23.4   999.0    0.00     102    84.8
 209   16:40   81.5    29   14.0   159     26.4   999.0    0.00     100    84.8
 209   16:50   81.4    29   13.6   167     24.3   999.0    0.00      94    84.8
 209   17:00   81.1    30   14.9   176     27.9   999.0    0.00      99    84.8
 209   17:10   80.2    33   12.9   185     26.0   999.0    0.00      91    84.8
 209   17:20   79.7    32   13.0   184     22.9   999.0    0.00      77    84.8
 209   17:30   79.8    31   12.2   188     22.1   999.0    0.00      65    84.8
 209   17:40   79.6    31   10.2   192     22.7   999.0    0.00      49    84.8
 209   17:50   79.7    30   11.1   190     24.8   999.0    0.00      42    84.8
 209   18:00   79.6    30   11.1   183     20.8   999.0    0.00      33    84.8
 209   18:10   79.4    31   10.0   168     19.6   999.0    0.00      27    84.8
 209   18:20   78.8    33    9.4   178     17.4   999.0    0.00      22    84.8
 209   18:30   77.7    36    8.2   189     16.1   999.0    0.00      16    84.8
 209   18:40   77.0    37    8.1   171     16.4   999.0    0.00       9    84.8
 209   18:50   76.6    38    8.4   161     14.7   999.0    0.00       4    84.8
 209   19:00   76.4    38    7.6   155     14.1   999.0    0.00       1    84.8
 209   19:10   76.4    37    7.1   155     13.4   999.0    0.00       1    84.9
 209   19:20   76.3    38    6.5   153      9.8   999.0    0.00       0    84.9
 209   19:30   76.2    38    5.9   154      9.5   999.0    0.00       0    84.9
 209   19:40   76.0    38    5.7   156      9.9   999.0    0.00       0    84.9
 209   19:50   75.7    39    5.6   161     11.6   999.0    0.00       0    84.9
 209   20:00   75.6    39    6.2   164     10.9   999.0    0.00       0    84.9
 209   20:10   75.8    39    6.1   175     10.7   999.0    0.00       0    84.9
 209   20:20   75.8    40    5.7   177      9.6   999.0    0.00       0    84.9
 209   20:30   76.0    40    7.2   170     12.2   999.0    0.00       0    84.9
 209   20:40   76.3    40    7.5   168     13.8   999.0    0.00       0    84.9
 209   20:50   76.0    41    6.8   172     11.5   999.0    0.00       0    84.9
 209   21:00   75.7    41    6.4   160     10.8   999.0    0.00       0    84.8
 209   21:10   75.8    41    6.8   174     12.7   999.0    0.00       0    84.8
 209   21:20   76.0    40    8.3   175     14.6   999.0    0.00       0    84.8
 209   21:30   76.2    39    7.5   160     13.6   999.0    0.00       0    84.8
 209   21:40   76.1    39    7.8   166     14.0   999.0    0.00       0    84.8
 209   21:50   76.0    39    6.8   162     13.1   999.0    0.00       0    84.8
 209   22:00   75.7    39    5.8   156     10.8   999.0    0.00       0    84.8
 209   22:10   75.7    39    6.6   172     13.2   999.0    0.00       0    84.8
 209   22:20   75.5    40    5.0   191      9.5   999.0    0.00       0    84.8
 209   22:30   75.2    40    5.2   187     10.6   999.0    0.00       0    84.8
 209   22:40   75.8    38    5.6   191     10.3   999.0    0.00       0    84.7
 209   22:50   75.8    38    3.9   181      6.8   999.0    0.00       0    84.7
 209   23:00   75.0    40    3.4   204      6.0   999.0    0.00       0    84.7
 209   23:10   74.3    42    3.1   210      5.1   999.0    0.00       0    84.7
 209   23:20   73.8    43    2.0   234      3.0   999.0    0.00       0    84.7
 209   23:30   73.4    44    1.6   210      3.4   999.0    0.00       0    84.7
 209   23:40   73.0    44    2.1   216      4.3   999.0    0.00       0    84.7
 209   23:50   73.3    43    3.4   208      6.3   999.0    0.00       0    84.6
 210    0:00   73.7    42    3.4   210      6.4   999.0    0.00       0    84.6
 210    0:10   73.5    43    3.6   191      6.4   999.0    0.00       0    84.6
 210    0:20   73.7    42    4.1   192      8.0   999.0    0.00       0    84.6
 210    0:30   73.7    43    5.5   165      8.7   999.0    0.00       0    84.6
 210    0:40   74.3    42    6.1   166     11.7   999.0    0.00       0    84.5
 210    0:50   74.6    41    6.6   169     12.6   999.0    0.00       0    84.5
 210    1:00   74.4    41    6.1   175     10.2   999.0    0.00       0    84.5
 210    1:10   73.9    41    5.2   170      9.6   999.0    0.00       0    84.5
 210    1:20   74.0    42    6.5   172     12.1   999.0    0.00       0    84.4
 210    1:30   73.8    43    4.9   179     11.9   999.0    0.00       0    84.4
 210    1:40   73.3    44    5.4   169     11.4   999.0    0.00       0    84.4
 210    1:50   73.2    44    5.4   174      9.6   999.0    0.00       0    84.4
 210    2:00   73.0    44    5.2   183      9.4   999.0    0.00       0    84.3
 210    2:10   72.9    43    4.6   187      8.1   999.0    0.00       0    84.3
 210    2:20   72.4    44    3.7   196      8.2   999.0    0.00       0    84.3
 210    2:30   72.2    44    4.8   207      8.0   999.0    0.00       0    84.3
 210    2:40   72.8    43    6.5   194     13.1   999.0    0.00       0    84.2
 210    2:50   72.9    43    6.7   188     13.9   999.0    0.00       0    84.2
 210    3:00   73.2    42    7.0   193     13.1   999.0    0.00       0    84.2
 210    3:10   73.3    42    6.0   201     13.1   999.0    0.00       0    84.1
 210    3:20   72.7    43    5.9   198     10.7   999.0    0.00       0    84.1
 210    3:30   73.0    41    5.7   197     10.3   999.0    0.00       0    84.1
 210    3:40   72.6    42    5.6   195     10.6   999.0    0.00       0    84.1
 210    3:50   72.6    42    5.1   194      7.9   999.0    0.00       0    84.0
 210    4:00   71.9    43    4.4   200      8.3   999.0    0.00       0    84.0
 210    4:10   71.3    44    4.7   204      8.8   999.0    0.00       0    84.0
 210    4:20   70.7    46    4.7   218      9.1   999.0    0.00       0    83.9
 210    4:30   71.0    46    4.8   213      9.0   999.0    0.00       0    83.9
 210    4:40   70.6    47    4.3   234      6.8   999.0    0.00       1    83.9
 210    4:50   69.8    48    4.0   237      6.9   999.0    0.00       6    83.9
 210    5:00   69.4    49    4.2   222      6.4   999.0    0.00      14    83.8
 210    5:10   70.1    48    4.1   199      7.8   999.0    0.00      28    83.8
 210    5:20   69.7    50    2.5   202      4.3   999.0    0.00      40    83.8
 210    5:30   69.5    51    1.1   209      2.5   999.0    0.00      52    83.8
 210    5:40   69.3    52    1.4   235      2.6   999.0    0.00      64    83.7
 210    5:50   69.2    53    1.0   238      1.9   999.0    0.00      80    83.7

Return to Frey Ranch - Fallon, Nevada graphs page.


Western Regional Climate Center,wrcc@dri.edu